Time;durP1;ratioP1;P1;durP2;ratioP2;P2;SDS_P1;SDS_P2;PMS_P1;PMS_P2;Temp;Humidity;BMP_temperature;BMP_pressure;BME280_temperature;BME280_humidity;BME280_pressure;Samples;Min_cycle;Max_cycle;Signal;HPM_P1;HPM_P2
2023/04/27 00:00:23;;;;;;;4.22;1.80;;;18.90;56.20;;;;;;5021029;28;20071;-72
2023/04/27 00:02:48;;;;;;;4.60;2.10;;;18.90;56.20;;;;;;5019469;28;20044;-72
2023/04/27 00:05:14;;;;;;;2.90;2.00;;;18.90;56.20;;;;;;5017797;28;20034;-72
2023/04/27 00:07:40;;;;;;;2.53;1.65;;;18.90;56.30;;;;;;5018375;28;20052;-72
2023/04/27 00:10:06;;;;;;;3.17;2.13;;;18.90;56.30;;;;;;5015734;28;20029;-72
2023/04/27 00:12:32;;;;;;;2.50;1.55;;;18.90;56.30;;;;;;5017562;28;20033;-73
2023/04/27 00:14:58;;;;;;;2.13;1.63;;;18.80;56.20;;;;;;5017912;28;20068;-72
2023/04/27 00:17:24;;;;;;;2.83;1.52;;;18.90;56.10;;;;;;5019071;28;20042;-71
2023/04/27 00:19:49;;;;;;;2.72;1.67;;;18.90;56.20;;;;;;5018105;28;20036;-71
2023/04/27 00:22:15;;;;;;;1.63;1.30;;;19.00;55.80;;;;;;5018374;28;20568;-71
2023/04/27 00:24:41;;;;;;;2.75;1.65;;;19.10;55.70;;;;;;5023110;28;20040;-71
2023/04/27 00:27:06;;;;;;;2.67;1.70;;;19.20;55.80;;;;;;5021434;28;20025;-72
2023/04/27 00:29:32;;;;;;;2.55;1.63;;;19.30;55.20;;;;;;5019703;28;20121;-72
2023/04/27 00:31:58;;;;;;;3.15;1.55;;;19.50;55.20;;;;;;5018830;28;20079;-74
2023/04/27 00:34:23;;;;;;;2.50;1.50;;;19.60;55.00;;;;;;5016986;28;20400;-72
2023/04/27 00:36:48;;;;;;;2.20;1.55;;;19.70;54.50;;;;;;5018044;28;20116;-73
2023/04/27 00:39:14;;;;;;;2.35;1.52;;;19.80;54.30;;;;;;5016122;28;20037;-72
2023/04/27 00:41:39;;;;;;;1.98;1.30;;;19.90;53.90;;;;;;5015607;28;20061;-73
2023/04/27 00:44:05;;;;;;;1.60;1.40;;;20.00;53.50;;;;;;5013327;28;20029;-72
2023/04/27 00:46:32;;;;;;;3.83;1.30;;;20.10;53.30;;;;;;5020868;28;20473;-73
2023/04/27 00:48:58;;;;;;;2.25;1.40;;;20.30;52.90;;;;;;5012767;28;20100;-73
2023/04/27 00:51:27;;;;;;;1.95;1.27;;;20.40;52.80;;;;;;5021066;28;20029;-73
2023/04/27 00:53:52;;;;;;;3.13;1.27;;;20.50;52.10;;;;;;5018976;28;20026;-73
2023/04/27 00:56:18;;;;;;;2.42;1.20;;;20.50;51.90;;;;;;5020696;28;20040;-72
2023/04/27 00:58:44;;;;;;;2.60;1.58;;;20.60;51.80;;;;;;5019289;28;20495;-72
2023/04/27 01:01:09;;;;;;;1.67;1.58;;;20.60;51.90;;;;;;5018923;28;20026;-72
2023/04/27 01:03:35;;;;;;;3.72;1.40;;;20.60;51.80;;;;;;5017938;28;20029;-73
2023/04/27 01:06:00;;;;;;;2.67;1.38;;;20.60;51.90;;;;;;5016081;28;20034;-72
2023/04/27 01:08:27;;;;;;;3.10;1.35;;;20.50;51.90;;;;;;5014610;28;20041;-72
2023/04/27 01:10:53;;;;;;;1.60;1.15;;;20.50;52.20;;;;;;5024137;28;20072;-72
2023/04/27 01:13:19;;;;;;;2.40;1.30;;;20.40;52.20;;;;;;5015484;28;20054;-72
2023/04/27 01:15:44;;;;;;;2.92;1.48;;;20.40;52.30;;;;;;5022848;28;20120;-73
2023/04/27 01:18:10;;;;;;;2.40;1.30;;;20.30;52.50;;;;;;5014855;28;20493;-71
2023/04/27 01:20:37;;;;;;;5.47;1.50;;;20.30;52.70;;;;;;5017098;28;20029;-73
2023/04/27 01:23:03;;;;;;;1.20;1.10;;;20.20;52.60;;;;;;5022109;28;20412;-72
2023/04/27 01:25:28;;;;;;;1.70;1.33;;;20.10;52.80;;;;;;5021997;28;20045;-72
2023/04/27 01:27:54;;;;;;;2.20;1.20;;;20.10;53.10;;;;;;5019683;28;20141;-73
2023/04/27 01:30:21;;;;;;;2.35;1.30;;;20.00;53.10;;;;;;5018727;28;20030;-72
2023/04/27 01:32:47;;;;;;;2.83;1.00;;;20.00;53.30;;;;;;5017705;28;20029;-71
2023/04/27 01:35:13;;;;;;;2.05;1.20;;;19.90;53.60;;;;;;5019084;28;20044;-72
2023/04/27 01:37:38;;;;;;;2.05;1.15;;;19.90;53.90;;;;;;5017515;28;20025;-72
2023/04/27 01:40:05;;;;;;;1.02;0.85;;;19.80;54.00;;;;;;5009765;28;20034;-73
2023/04/27 01:42:31;;;;;;;2.85;1.20;;;19.80;53.80;;;;;;5017238;28;20041;-70
2023/04/27 01:44:56;;;;;;;1.80;1.27;;;19.80;54.00;;;;;;5018889;28;20037;-72
2023/04/27 01:47:21;;;;;;;2.58;1.48;;;19.70;54.10;;;;;;5004989;28;20022;-72
2023/04/27 01:49:47;;;;;;;2.05;1.20;;;19.70;54.40;;;;;;5018473;28;20036;-72
2023/04/27 01:52:12;;;;;;;2.17;1.20;;;19.60;54.30;;;;;;5020706;28;20037;-72
2023/04/27 01:54:38;;;;;;;1.25;1.10;;;19.60;54.40;;;;;;5019971;28;20572;-72
2023/04/27 01:57:03;;;;;;;1.60;1.13;;;19.60;54.50;;;;;;5020435;28;20026;-72
2023/04/27 01:59:29;;;;;;;4.50;1.73;;;19.60;54.70;;;;;;5017127;28;20546;-72
2023/04/27 02:01:55;;;;;;;2.55;1.25;;;19.60;54.80;;;;;;5015076;28;20079;-74
2023/04/27 02:04:20;;;;;;;2.08;1.10;;;19.50;54.80;;;;;;5017732;28;20432;-72
2023/04/27 02:06:46;;;;;;;2.33;1.27;;;19.50;54.90;;;;;;5016472;28;20128;-71
2023/04/27 02:09:12;;;;;;;1.90;1.15;;;19.40;54.80;;;;;;5007878;28;20161;-72
2023/04/27 02:11:38;;;;;;;1.23;1.10;;;19.40;54.70;;;;;;5016421;23;20047;-65
2023/04/27 02:14:03;;;;;;;1.30;1.05;;;19.40;54.90;;;;;;4999147;28;20062;-66
2023/04/27 02:16:29;;;;;;;1.30;1.20;;;19.40;54.90;;;;;;4985678;28;20056;-65
2023/04/27 02:18:54;;;;;;;3.33;1.27;;;19.30;54.90;;;;;;4999657;28;20411;-66
2023/04/27 02:21:20;;;;;;;1.40;1.30;;;19.30;54.90;;;;;;4993675;28;20026;-66
2023/04/27 02:23:46;;;;;;;1.52;1.38;;;19.30;55.00;;;;;;4998858;28;20022;-65
2023/04/27 02:26:21;;;;;;;1.42;1.20;;;19.20;55.00;;;;;;4996074;28;20476;-66
2023/04/27 02:28:48;;;;;;;1.27;1.10;;;19.20;55.10;;;;;;4995584;28;20033;-65
2023/04/27 02:31:14;;;;;;;1.77;1.10;;;19.20;55.20;;;;;;4996513;28;20345;-66
2023/04/27 02:33:40;;;;;;;1.92;1.35;;;19.20;55.30;;;;;;4997024;28;20034;-66
2023/04/27 02:36:07;;;;;;;1.92;1.13;;;19.10;55.30;;;;;;5000067;28;20039;-65
2023/04/27 02:38:33;;;;;;;1.75;1.30;;;19.10;55.40;;;;;;4997696;28;20108;-65
2023/04/27 02:40:59;;;;;;;1.27;1.10;;;19.10;55.40;;;;;;4996374;28;20034;-66
2023/04/27 02:43:24;;;;;;;2.30;1.50;;;19.10;55.50;;;;;;4996050;28;20030;-65
2023/04/27 02:45:50;;;;;;;2.28;1.33;;;19.00;55.40;;;;;;4993027;28;20037;-66
2023/04/27 02:48:15;;;;;;;1.50;0.95;;;19.00;55.40;;;;;;4997568;28;20053;-65
2023/04/27 02:50:42;;;;;;;1.05;0.95;;;19.00;55.40;;;;;;4996546;28;20100;-65
2023/04/27 02:53:09;;;;;;;1.98;1.00;;;19.00;55.40;;;;;;4996322;28;20027;-66
2023/04/27 02:55:35;;;;;;;2.10;1.02;;;18.90;55.40;;;;;;4999084;28;20034;-65
2023/04/27 02:58:00;;;;;;;1.30;1.20;;;18.90;55.50;;;;;;5003796;28;20048;-66
2023/04/27 03:00:26;;;;;;;1.42;0.95;;;18.90;55.50;;;;;;4997268;28;20136;-65
2023/04/27 03:02:51;;;;;;;1.98;1.00;;;18.90;55.50;;;;;;4994726;28;20575;-65
2023/04/27 03:05:17;;;;;;;1.55;0.93;;;18.80;55.00;;;;;;4999054;28;20030;-66
2023/04/27 03:07:43;;;;;;;3.17;1.30;;;18.80;55.00;;;;;;4995350;28;20030;-65
2023/04/27 03:10:09;;;;;;;2.17;1.20;;;18.80;54.90;;;;;;4996178;28;20042;-66
2023/04/27 03:12:35;;;;;;;1.67;1.00;;;18.80;55.00;;;;;;4997347;28;20042;-66
2023/04/27 03:15:01;;;;;;;1.55;0.90;;;18.80;55.00;;;;;;4997894;28;20054;-66
2023/04/27 03:17:27;;;;;;;2.17;1.20;;;18.80;55.10;;;;;;5000170;28;20026;-65
2023/04/27 03:19:52;;;;;;;1.67;1.13;;;18.80;55.10;;;;;;4998475;28;20091;-66
2023/04/27 03:22:18;;;;;;;1.77;1.05;;;18.80;55.20;;;;;;4997879;28;20108;-65
2023/04/27 03:24:44;;;;;;;2.25;0.85;;;18.80;55.10;;;;;;4994879;28;20037;-66
2023/04/27 03:27:09;;;;;;;1.77;1.10;;;18.80;55.10;;;;;;4997634;28;20495;-65
2023/04/27 03:29:35;;;;;;;1.65;1.20;;;18.80;55.10;;;;;;4999507;28;20406;-66
2023/04/27 03:32:02;;;;;;;1.27;0.80;;;18.90;55.20;;;;;;4997845;28;20061;-65
2023/04/27 03:34:28;;;;;;;2.13;1.02;;;18.90;55.20;;;;;;4998022;28;20527;-65
2023/04/27 03:36:53;;;;;;;1.75;1.15;;;19.00;55.20;;;;;;4995410;28;20033;-66
2023/04/27 03:39:19;;;;;;;2.78;1.00;;;19.10;55.10;;;;;;5000950;28;20133;-66
2023/04/27 03:41:45;;;;;;;1.40;0.80;;;19.30;54.90;;;;;;4998177;28;20383;-66
2023/04/27 03:44:10;;;;;;;1.48;1.02;;;19.60;54.30;;;;;;4997564;28;20109;-66
2023/04/27 03:46:35;;;;;;;1.25;0.90;;;19.80;53.70;;;;;;4999538;28;20034;-66
2023/04/27 03:49:01;;;;;;;0.98;0.70;;;20.10;53.10;;;;;;5002005;28;20033;-66
2023/04/27 03:51:26;;;;;;;1.35;0.82;;;20.40;52.50;;;;;;4999694;28;20030;-66
2023/04/27 03:53:52;;;;;;;1.60;1.13;;;20.60;52.00;;;;;;5005637;28;20034;-67
2023/04/27 03:56:17;;;;;;;1.17;0.90;;;20.80;51.40;;;;;;5004166;28;20026;-66
2023/04/27 03:58:43;;;;;;;0.88;0.70;;;20.90;51.10;;;;;;5004400;28;20037;-66
2023/04/27 04:01:09;;;;;;;1.02;0.77;;;21.00;51.00;;;;;;4998859;28;20033;-66
2023/04/27 04:03:35;;;;;;;1.92;1.10;;;21.10;50.90;;;;;;4996666;28;20387;-66
2023/04/27 04:06:02;;;;;;;1.80;1.30;;;21.20;50.70;;;;;;4995085;28;20030;-66
2023/04/27 04:08:28;;;;;;;1.55;1.17;;;21.20;50.80;;;;;;4997857;28;20034;-63
2023/04/27 04:10:55;;;;;;;1.48;0.90;;;21.20;50.70;;;;;;5003340;23;20148;-72
2023/04/27 04:13:21;;;;;;;1.50;0.93;;;21.20;50.90;;;;;;4997871;28;20492;-71
2023/04/27 04:15:46;;;;;;;2.13;1.10;;;21.10;50.70;;;;;;5003138;28;20045;-71
2023/04/27 04:18:12;;;;;;;1.45;0.88;;;21.10;50.80;;;;;;4974920;28;20438;-71
2023/04/27 04:20:37;;;;;;;1.20;0.75;;;21.00;50.90;;;;;;4992662;28;20269;-71
2023/04/27 04:23:03;;;;;;;2.20;1.10;;;21.00;51.20;;;;;;5002009;28;20038;-71
2023/04/27 04:25:28;;;;;;;2.67;1.13;;;20.90;51.40;;;;;;5000412;28;20033;-71
2023/04/27 04:27:53;;;;;;;1.38;1.02;;;20.70;51.30;;;;;;5002905;28;20452;-72
2023/04/27 04:30:19;;;;;;;2.42;0.88;;;20.70;51.40;;;;;;5003671;28;20034;-72
2023/04/27 04:32:45;;;;;;;3.15;1.20;;;20.60;51.50;;;;;;4998647;28;20022;-71
2023/04/27 04:35:10;;;;;;;2.35;1.08;;;20.50;52.10;;;;;;4999401;28;20038;-72
2023/04/27 04:37:36;;;;;;;1.10;0.90;;;20.50;52.20;;;;;;5003558;28;20053;-72
2023/04/27 04:40:09;;;;;;;1.80;0.75;;;20.40;52.50;;;;;;4997432;28;20041;-72
2023/04/27 04:42:38;;;;;;;1.80;1.13;;;20.40;52.60;;;;;;5004346;28;20061;-72
2023/04/27 04:45:04;;;;;;;1.20;0.80;;;20.30;52.50;;;;;;5000566;28;20118;-72
2023/04/27 04:47:31;;;;;;;1.63;1.00;;;20.30;53.00;;;;;;4995517;28;20436;-72
2023/04/27 04:49:57;;;;;;;1.42;0.90;;;20.20;53.00;;;;;;4997003;28;20037;-72
2023/04/27 04:52:22;;;;;;;3.47;1.00;;;20.20;53.10;;;;;;5009057;28;20029;-72
2023/04/27 04:54:51;;;;;;;2.00;1.17;;;20.10;53.10;;;;;;5004230;28;20060;-71
2023/04/27 04:57:17;;;;;;;1.33;0.80;;;20.10;53.20;;;;;;5001789;28;20034;-72
2023/04/27 04:59:42;;;;;;;2.63;0.85;;;20.00;53.30;;;;;;4998830;28;20044;-71
2023/04/27 05:02:08;;;;;;;1.10;0.90;;;20.00;53.60;;;;;;4997384;28;20400;-72
2023/04/27 05:04:33;;;;;;;1.33;0.80;;;19.90;53.60;;;;;;4994345;28;20029;-71
2023/04/27 05:06:59;;;;;;;1.50;0.88;;;19.90;53.80;;;;;;4996118;28;20472;-71
2023/04/27 05:09:24;;;;;;;1.65;0.88;;;19.90;53.70;;;;;;4996374;28;20033;-69
2023/04/27 05:11:50;;;;;;;2.05;1.15;;;19.80;53.80;;;;;;4994079;28;20502;-69
2023/04/27 05:14:16;;;;;;;2.03;1.33;;;19.80;53.90;;;;;;4992517;28;20026;-69
2023/04/27 05:16:41;;;;;;;1.35;1.02;;;19.80;53.90;;;;;;5004514;28;20072;-69
2023/04/27 05:19:07;;;;;;;1.20;1.10;;;19.70;54.00;;;;;;4990872;28;20061;-71
2023/04/27 05:21:33;;;;;;;1.73;1.35;;;19.70;54.20;;;;;;5004095;28;20030;-73
2023/04/27 05:23:59;;;;;;;1.70;1.02;;;19.60;54.10;;;;;;5005444;28;20300;-71
2023/04/27 05:26:25;;;;;;;1.95;1.02;;;19.60;54.20;;;;;;5001426;28;20426;-69
2023/04/27 05:28:51;;;;;;;1.70;1.00;;;19.60;54.40;;;;;;4998565;28;20081;-69
2023/04/27 05:31:16;;;;;;;1.58;0.85;;;19.50;54.50;;;;;;5001925;28;20156;-71
2023/04/27 05:33:42;;;;;;;1.35;0.93;;;19.50;54.50;;;;;;4996431;28;20034;-71
2023/04/27 05:36:08;;;;;;;1.38;1.13;;;19.50;54.50;;;;;;5000307;28;20040;-71
2023/04/27 05:38:34;;;;;;;2.53;0.88;;;19.40;54.60;;;;;;4995369;28;20496;-70
2023/04/27 05:41:00;;;;;;;3.22;1.25;;;19.40;54.60;;;;;;4995435;28;20069;-73
2023/04/27 05:43:26;;;;;;;2.72;1.17;;;19.40;54.80;;;;;;4992066;28;20034;-71
2023/04/27 05:45:52;;;;;;;2.92;1.23;;;19.40;54.90;;;;;;4999118;28;20347;-73
2023/04/27 05:48:18;;;;;;;1.90;1.30;;;19.30;55.00;;;;;;4997081;28;20472;-72
2023/04/27 05:50:43;;;;;;;3.83;1.40;;;19.30;55.10;;;;;;5004518;28;20128;-71
2023/04/27 05:53:09;;;;;;;3.22;1.23;;;19.30;55.00;;;;;;5000644;28;20038;-72
2023/04/27 05:55:36;;;;;;;2.15;1.58;;;19.30;55.10;;;;;;5001064;28;20096;-72
2023/04/27 05:58:02;;;;;;;4.15;2.28;;;19.20;55.20;;;;;;4996791;28;20022;-73
2023/04/27 06:00:28;;;;;;;4.03;2.38;;;19.20;55.40;;;;;;4997492;28;20605;-72
2023/04/27 06:02:53;;;;;;;5.50;2.15;;;19.20;55.40;;;;;;4998352;28;20062;-72
2023/04/27 06:05:19;;;;;;;5.50;2.47;;;19.20;55.50;;;;;;4998889;28;20595;-72
2023/04/27 06:07:44;;;;;;;3.35;2.55;;;19.20;55.50;;;;;;4997479;28;20034;-73
2023/04/27 06:10:10;;;;;;;3.42;2.35;;;19.10;55.50;;;;;;4995735;28;20037;-72
2023/04/27 06:12:36;;;;;;;4.22;3.33;;;19.10;55.50;;;;;;4995616;28;20040;-71
2023/04/27 06:15:06;;;;;;;3.08;2.40;;;19.10;55.50;;;;;;4994324;28;20132;-70
2023/04/27 06:17:33;;;;;;;4.80;3.00;;;19.10;55.60;;;;;;4999247;28;20550;-73
2023/04/27 06:19:58;;;;;;;4.38;2.88;;;19.10;55.70;;;;;;5001671;28;20117;-70
2023/04/27 06:22:24;;;;;;;3.20;2.90;;;19.10;55.70;;;;;;5003413;28;20117;-71
2023/04/27 06:24:49;;;;;;;4.43;3.00;;;19.10;55.70;;;;;;4997295;28;20033;-73
2023/04/27 06:27:15;;;;;;;4.35;3.72;;;19.00;55.80;;;;;;4996068;28;20030;-71
2023/04/27 06:29:40;;;;;;;4.95;3.58;;;19.00;55.80;;;;;;4997479;28;20662;-73
2023/04/27 06:32:06;;;;;;;8.05;3.80;;;19.00;55.60;;;;;;4997308;28;20031;-71
2023/04/27 06:34:34;;;;;;;7.72;3.72;;;19.10;55.90;;;;;;4997295;28;20319;-73
2023/04/27 06:36:59;;;;;;;7.25;4.00;;;19.00;55.90;;;;;;4996701;28;20030;-73
2023/04/27 06:39:24;;;;;;;6.50;4.20;;;19.00;55.90;;;;;;4993362;28;20025;-70
2023/04/27 06:41:50;;;;;;;9.50;5.93;;;19.00;56.10;;;;;;5002569;28;20029;-74
2023/04/27 06:44:16;;;;;;;8.18;4.43;;;19.00;56.00;;;;;;4997657;28;20484;-71
2023/04/27 06:46:41;;;;;;;7.82;4.97;;;19.00;55.90;;;;;;4999364;28;20033;-72
2023/04/27 06:49:06;;;;;;;6.85;4.43;;;18.90;56.00;;;;;;5006002;28;20135;-70
2023/04/27 06:51:32;;;;;;;9.50;4.55;;;18.90;56.00;;;;;;5001770;28;20049;-72
2023/04/27 06:53:57;;;;;;;10.23;4.95;;;18.90;55.90;;;;;;4997761;28;20396;-72
2023/04/27 06:56:23;;;;;;;9.48;4.43;;;18.90;56.00;;;;;;4999107;28;20714;-70
2023/04/27 06:58:48;;;;;;;9.32;4.30;;;18.90;56.00;;;;;;4997602;28;20030;-73
2023/04/27 07:01:14;;;;;;;14.18;6.05;;;18.80;56.00;;;;;;5000306;28;20580;-71
2023/04/27 07:03:39;;;;;;;13.88;6.03;;;18.80;55.90;;;;;;4996219;28;20084;-72
2023/04/27 07:06:05;;;;;;;13.45;6.20;;;18.80;56.20;;;;;;4996780;28;20509;-72
2023/04/27 07:08:32;;;;;;;11.38;5.80;;;18.80;56.50;;;;;;4995654;28;20026;-72
2023/04/27 07:10:58;;;;;;;10.70;5.72;;;18.80;56.40;;;;;;4999169;28;20047;-73
2023/04/27 07:13:24;;;;;;;10.90;5.13;;;18.80;56.40;;;;;;5003850;28;20096;-73
2023/04/27 07:15:56;;;;;;;13.90;5.82;;;18.80;56.20;;;;;;4998599;28;20092;-73
2023/04/27 07:18:22;;;;;;;9.70;4.72;;;18.80;56.20;;;;;;5003455;28;20033;-73
2023/04/27 07:20:47;;;;;;;8.88;4.15;;;18.80;56.20;;;;;;5003952;28;20079;-73
2023/04/27 07:23:13;;;;;;;9.40;4.28;;;18.80;55.90;;;;;;4998513;28;20037;-73
2023/04/27 07:25:39;;;;;;;13.48;3.92;;;18.80;55.60;;;;;;5001933;28;20062;-73
2023/04/27 07:28:04;;;;;;;6.85;3.88;;;18.80;55.40;;;;;;5001781;28;20041;-73
2023/04/27 07:40:35;;;;;;;6.72;2.70;;;18.80;55.10;;;;;;4998419;28;20402;-74
2023/04/27 07:43:01;;;;;;;5.50;2.38;;;18.80;55.10;;;;;;4994476;28;20137;-72
2023/04/27 07:45:30;;;;;;;6.63;3.35;;;18.70;54.80;;;;;;4994771;28;20041;-72
2023/04/27 07:48:00;;;;;;;4.07;2.13;;;18.80;54.90;;;;;;5000678;28;20061;-72
2023/04/27 07:50:27;;;;;;;5.90;2.42;;;18.80;55.00;;;;;;4999363;28;20118;-73
2023/04/27 07:52:53;;;;;;;7.50;2.28;;;18.90;55.00;;;;;;5000878;28;20045;-73
2023/04/27 07:55:21;;;;;;;5.05;2.20;;;19.10;54.80;;;;;;4997790;28;20053;-71
2023/04/27 07:57:46;;;;;;;5.35;1.48;;;19.30;54.40;;;;;;4999361;28;20041;-71
2023/04/27 08:00:12;;;;;;;4.60;1.98;;;19.50;54.00;;;;;;4998301;28;20022;-71
2023/04/27 08:02:38;;;;;;;7.57;2.20;;;19.70;53.60;;;;;;4995953;28;20129;-71
2023/04/27 08:05:03;;;;;;;4.72;1.83;;;20.00;53.10;;;;;;4996224;28;20058;-72
2023/04/27 08:07:30;;;;;;;2.35;1.70;;;20.20;52.70;;;;;;4997225;28;20176;-71
2023/04/27 08:09:56;;;;;;;3.13;1.58;;;20.30;52.60;;;;;;4996883;28;20674;-72
2023/04/27 08:12:21;;;;;;;3.33;1.70;;;20.50;52.20;;;;;;4998655;28;20118;-71
2023/04/27 08:14:47;;;;;;;6.20;2.20;;;20.70;51.80;;;;;;5003256;28;20022;-72
2023/04/27 08:17:12;;;;;;;3.35;1.38;;;20.80;51.30;;;;;;5003403;28;20034;-72
2023/04/27 08:19:39;;;;;;;3.92;2.03;;;20.90;50.90;;;;;;5001617;28;20103;-72
2023/04/27 08:22:05;;;;;;;4.03;1.35;;;20.90;50.80;;;;;;5002445;28;20034;-72
2023/04/27 08:24:30;;;;;;;5.63;1.65;;;21.00;50.70;;;;;;5001364;28;20030;-72
2023/04/27 08:26:56;;;;;;;2.60;1.20;;;21.10;50.40;;;;;;4999193;28;20030;-73
2023/04/27 08:29:21;;;;;;;2.03;1.30;;;21.10;50.30;;;;;;5002259;28;20382;-73
2023/04/27 08:31:47;;;;;;;3.53;1.33;;;21.10;50.10;;;;;;4998286;28;20417;-72
2023/04/27 08:34:12;;;;;;;3.22;1.17;;;21.10;49.80;;;;;;4995912;28;20105;-72
2023/04/27 08:36:38;;;;;;;2.47;1.52;;;21.10;49.70;;;;;;4999042;28;20042;-72
2023/04/27 08:39:06;;;;;;;2.97;1.27;;;21.10;49.90;;;;;;5007848;28;20241;-72
2023/04/27 08:41:32;;;;;;;3.97;1.45;;;21.00;49.90;;;;;;4997006;28;20068;-73
2023/04/27 08:43:58;;;;;;;3.38;1.75;;;20.90;50.10;;;;;;4998590;28;20062;-72
2023/04/27 08:46:27;;;;;;;3.53;1.58;;;20.80;50.00;;;;;;5002229;28;20034;-72
2023/04/27 08:48:53;;;;;;;3.80;1.38;;;20.70;50.70;;;;;;5000159;28;20125;-72
2023/04/27 08:51:20;;;;;;;1.45;0.98;;;20.70;51.20;;;;;;4998291;28;20038;-71
2023/04/27 08:53:53;;;;;;;3.03;1.27;;;20.60;51.60;;;;;;5001161;28;20021;-72
2023/04/27 08:56:22;;;;;;;3.13;1.40;;;20.50;51.80;;;;;;4998372;28;20377;-72
2023/04/27 08:58:47;;;;;;;3.55;1.30;;;20.50;51.90;;;;;;4991546;28;20508;-71
2023/04/27 09:01:13;;;;;;;2.95;1.33;;;20.40;52.00;;;;;;4996374;28;20037;-71
2023/04/27 09:03:38;;;;;;;2.55;1.13;;;20.40;52.50;;;;;;4998986;28;20037;-70
2023/04/27 09:06:05;;;;;;;2.08;1.35;;;20.30;52.50;;;;;;4997784;28;20030;-72
2023/04/27 09:08:43;;;;;;;2.88;1.00;;;20.20;52.60;;;;;;4993636;28;20042;-72
2023/04/27 09:11:09;;;;;;;3.28;1.20;;;20.20;52.60;;;;;;4993008;28;20045;-72
2023/04/27 09:13:36;;;;;;;3.13;1.30;;;20.10;52.70;;;;;;4996974;28;20436;-71
2023/04/27 09:16:02;;;;;;;2.25;1.55;;;20.10;53.00;;;;;;5002558;28;20123;-71
2023/04/27 09:18:27;;;;;;;2.45;1.40;;;20.10;53.10;;;;;;5003149;28;20034;-72
2023/04/27 09:20:53;;;;;;;3.80;1.50;;;20.00;53.00;;;;;;4999001;28;20084;-72
2023/04/27 09:23:28;;;;;;;1.75;1.30;;;20.00;53.00;;;;;;4986894;28;20509;-72
2023/04/27 09:25:55;;;;;;;2.70;1.10;;;20.00;53.20;;;;;;4996229;28;20057;-72
2023/04/27 09:28:22;;;;;;;1.58;1.40;;;20.00;53.20;;;;;;4990301;28;20057;-72
2023/04/27 09:30:53;;;;;;;3.60;1.23;;;19.90;53.20;;;;;;4999596;28;20121;-72
2023/04/27 09:33:26;;;;;;;1.55;1.20;;;19.90;53.20;;;;;;5010249;28;20022;-71
2023/04/27 09:35:52;;;;;;;5.03;1.45;;;19.80;53.20;;;;;;4999836;28;20044;-72
2023/04/27 09:38:19;;;;;;;2.78;1.30;;;19.80;53.30;;;;;;4999822;28;20034;-72
2023/04/27 09:40:44;;;;;;;2.97;1.17;;;19.80;53.30;;;;;;4994948;28;20038;-71
2023/04/27 09:43:11;;;;;;;1.92;1.08;;;19.70;53.50;;;;;;4995961;28;20512;-72
2023/04/27 09:45:37;;;;;;;3.03;1.40;;;19.70;53.40;;;;;;5004551;28;20439;-71
2023/04/27 09:48:04;;;;;;;2.10;1.40;;;19.70;53.50;;;;;;4998878;28;20467;-70
2023/04/27 09:50:39;;;;;;;2.17;1.40;;;19.60;53.40;;;;;;5047406;27;20416;-50
2023/04/27 09:53:08;;;;;;;2.88;1.15;;;19.60;53.50;;;;;;5021491;28;20597;-49
2023/04/27 09:55:53;;;;;;;1.40;1.30;;;19.60;53.60;;;;;;5019536;28;20117;-49
2023/04/27 09:58:54;;;;;;;1.30;1.20;;;19.60;53.70;;;;;;5023043;28;20048;-54
2023/04/27 10:01:29;;;;;;;2.05;1.40;;;19.60;53.70;;;;;;5035699;28;20406;-50
2023/04/27 10:04:02;;;;;;;2.30;1.25;;;19.50;53.80;;;;;;5041607;28;20163;-50
2023/04/27 10:06:46;;;;;;;2.42;1.20;;;19.50;53.80;;;;;;5038871;28;20566;-52
2023/04/27 10:09:13;;;;;;;1.52;1.20;;;19.50;53.90;;;;;;5031978;28;20645;-52
2023/04/27 10:11:40;;;;;;;2.50;1.30;;;19.40;53.80;;;;;;5043118;28;20766;-48
2023/04/27 10:14:08;;;;;;;1.52;1.20;;;19.40;53.80;;;;;;5027864;28;20038;-51
2023/04/27 10:16:56;;;;;;;3.13;1.42;;;19.40;53.90;;;;;;5034327;28;20053;-49
2023/04/27 10:19:23;;;;;;;1.42;1.00;;;19.40;54.70;;;;;;5011608;28;20033;-52
2023/04/27 10:22:06;;;;;;;1.48;1.00;;;19.30;53.90;;;;;;5017156;28;20038;-47
2023/04/27 10:24:47;;;;;;;1.88;1.38;;;19.30;54.00;;;;;;5023159;28;20038;-51
2023/04/27 10:27:17;;;;;;;2.80;1.60;;;19.30;54.00;;;;;;5018493;28;20037;-50
2023/04/27 10:29:45;;;;;;;3.38;1.05;;;19.30;53.90;;;;;;5029177;28;20049;-48
2023/04/27 10:32:20;;;;;;;5.15;1.60;;;19.20;54.00;;;;;;5021914;28;20482;-50
2023/04/27 10:34:47;;;;;;;1.67;1.30;;;19.20;54.00;;;;;;5025471;28;20041;-48
2023/04/27 10:37:14;;;;;;;3.30;1.40;;;19.20;54.10;;;;;;5020076;28;20642;-51
2023/04/27 10:39:41;;;;;;;1.20;1.10;;;19.20;54.00;;;;;;5028091;28;20041;-48
2023/04/27 10:42:07;;;;;;;1.65;1.13;;;19.20;54.00;;;;;;5024880;28;20041;-50
2023/04/27 10:44:34;;;;;;;4.38;1.45;;;19.20;54.00;;;;;;5011683;28;20032;-51
2023/04/27 10:47:15;;;;;;;2.60;1.17;;;19.20;54.10;;;;;;5014270;28;20030;-51
2023/04/27 10:49:41;;;;;;;2.70;1.70;;;19.10;54.00;;;;;;5017797;28;20398;-50
2023/04/27 10:52:07;;;;;;;2.92;1.10;;;19.10;54.00;;;;;;5032457;28;20056;-48
2023/04/27 10:54:35;;;;;;;1.85;1.40;;;19.10;54.00;;;;;;5022154;28;20081;-52
2023/04/27 10:57:08;;;;;;;1.88;1.30;;;19.10;54.10;;;;;;5026489;28;20059;-48
2023/04/27 10:59:35;;;;;;;3.33;1.20;;;19.10;54.10;;;;;;5018703;28;20033;-50
2023/04/27 11:02:01;;;;;;;2.72;1.33;;;19.10;54.10;;;;;;5013544;28;20061;-49
2023/04/27 11:04:40;;;;;;;1.42;1.23;;;19.10;54.20;;;;;;5005924;28;20033;-51
2023/04/27 11:07:25;;;;;;;1.70;1.20;;;19.10;54.20;;;;;;4979878;28;20091;-48
2023/04/27 11:09:51;;;;;;;3.15;1.48;;;19.00;54.30;;;;;;5011578;28;20041;-50
2023/04/27 11:12:17;;;;;;;3.63;1.27;;;19.00;54.30;;;;;;5005039;28;20038;-50
2023/04/27 11:15:11;;;;;;;2.28;1.17;;;19.00;54.30;;;;;;5001755;28;20094;-52
2023/04/27 11:17:37;;;;;;;4.07;1.33;;;19.00;54.40;;;;;;4980829;28;20037;-50
2023/04/27 11:20:09;;;;;;;2.50;1.23;;;19.00;54.50;;;;;;5006076;28;20390;-51
2023/04/27 11:22:44;;;;;;;2.50;1.25;;;19.00;54.50;;;;;;5008141;28;20120;-48
2023/04/27 11:25:10;;;;;;;5.35;1.50;;;18.90;54.50;;;;;;5005944;28;20125;-49
2023/04/27 11:27:38;;;;;;;3.08;1.13;;;18.90;54.50;;;;;;5008449;28;20133;-49
2023/04/27 11:30:04;;;;;;;1.92;1.20;;;18.90;54.60;;;;;;5006386;28;20124;-51
2023/04/27 11:32:30;;;;;;;2.58;1.35;;;18.90;54.70;;;;;;5014162;28;20763;-52
2023/04/27 11:34:56;;;;;;;1.92;1.30;;;18.90;54.70;;;;;;5010324;28;20038;-53
2023/04/27 11:37:23;;;;;;;2.67;1.00;;;18.90;54.70;;;;;;5008319;28;20070;-50
2023/04/27 11:39:50;;;;;;;3.83;1.23;;;18.90;54.70;;;;;;5007009;28;20036;-56
2023/04/27 11:42:20;;;;;;;2.67;1.20;;;18.90;54.70;;;;;;5001208;28;20553;-49
2023/04/27 11:45:01;;;;;;;1.80;1.38;;;18.90;54.80;;;;;;5002211;28;20030;-48
2023/04/27 11:47:28;;;;;;;2.33;1.35;;;18.90;54.80;;;;;;5003987;28;20498;-50
2023/04/27 11:49:56;;;;;;;2.05;1.50;;;18.90;54.90;;;;;;5004208;28;20080;-48
2023/04/27 11:52:27;;;;;;;2.28;1.33;;;18.90;54.80;;;;;;5003950;28;20034;-51
2023/04/27 11:54:55;;;;;;;2.30;1.25;;;19.00;54.80;;;;;;5013161;28;20088;-52
2023/04/27 11:57:29;;;;;;;1.45;0.98;;;19.10;54.50;;;;;;5005641;28;20092;-49
2023/04/27 11:59:55;;;;;;;2.08;1.10;;;19.20;54.00;;;;;;5006695;28;20033;-51
2023/04/27 12:02:21;;;;;;;2.42;1.27;;;19.40;53.60;;;;;;5005550;28;20036;-48
2023/04/27 12:04:48;;;;;;;1.58;1.17;;;19.70;53.20;;;;;;5002575;28;20030;-47
2023/04/27 12:07:13;;;;;;;3.60;1.17;;;19.90;52.70;;;;;;5012116;28;20088;-56
2023/04/27 12:09:39;;;;;;;1.92;0.90;;;20.10;52.20;;;;;;5010878;28;20696;-47
2023/04/27 12:12:05;;;;;;;1.33;1.05;;;20.30;51.80;;;;;;5003612;28;20044;-48
2023/04/27 12:14:31;;;;;;;2.60;1.00;;;20.40;51.40;;;;;;5005154;28;20132;-49
2023/04/27 12:16:56;;;;;;;2.03;1.00;;;20.60;51.00;;;;;;5007961;28;20539;-53
2023/04/27 12:19:25;;;;;;;1.95;1.33;;;20.70;50.70;;;;;;5009810;28;20045;-53
2023/04/27 12:21:51;;;;;;;1.77;1.00;;;20.90;50.50;;;;;;5012267;28;20036;-49
2023/04/27 12:24:17;;;;;;;3.35;1.08;;;20.90;50.90;;;;;;5007655;28;20037;-49
2023/04/27 12:26:43;;;;;;;1.40;0.85;;;21.00;50.30;;;;;;5014037;28;21060;-49
2023/04/27 12:29:08;;;;;;;4.53;1.25;;;20.90;50.30;;;;;;5014912;28;20034;-55
2023/04/27 12:31:34;;;;;;;2.33;1.05;;;20.90;50.30;;;;;;5006157;28;20030;-48
2023/04/27 12:34:00;;;;;;;1.15;1.02;;;21.00;50.50;;;;;;5003481;28;20037;-46
2023/04/27 12:36:26;;;;;;;1.23;0.95;;;20.90;50.60;;;;;;5002729;28;20041;-50
2023/04/27 12:38:59;;;;;;;1.73;1.00;;;20.80;50.80;;;;;;5009079;28;20022;-47
2023/04/27 12:41:25;;;;;;;1.88;1.10;;;20.80;51.00;;;;;;5000859;28;20033;-51
2023/04/27 12:43:50;;;;;;;1.50;1.02;;;20.70;51.10;;;;;;5006402;28;20738;-46
2023/04/27 12:46:19;;;;;;;2.08;1.02;;;20.60;51.40;;;;;;5004652;28;20505;-49
2023/04/27 12:48:45;;;;;;;2.28;1.23;;;20.60;51.70;;;;;;5006128;28;20113;-56
2023/04/27 12:51:11;;;;;;;1.23;1.00;;;20.50;51.80;;;;;;5006102;28;20026;-50
2023/04/27 12:53:37;;;;;;;2.78;1.42;;;20.40;52.10;;;;;;5012845;28;20060;-56